Time;durP1;ratioP1;P1;durP2;ratioP2;P2;SDS_P1;SDS_P2;PMS_P1;PMS_P2;Temp;Humidity;BMP_temperature;BMP_pressure;BME280_temperature;BME280_humidity;BME280_pressure;Samples;Min_cycle;Max_cycle;Signal;HPM_P1;HPM_P2
2022/07/02 00:00:08;;;;;;;9.63;8.02;;;;;;;13.99;100.00;101419.97;4911956;29;20459;-81
2022/07/02 00:10:56;;;;;;;9.93;8.23;;;;;;;13.78;100.00;101417.78;4973675;28;20049;-83
2022/07/02 00:14:05;;;;;;;11.45;9.18;;;;;;;13.71;100.00;101416.19;4935046;28;20057;-82
2022/07/02 00:20:42;;;;;;;13.65;10.60;;;;;;;13.63;100.00;101424.31;4928086;28;20148;-82
2022/07/02 00:23:51;;;;;;;12.15;10.38;;;;;;;13.57;100.00;101420.91;4934604;29;20065;-81
2022/07/02 00:26:41;;;;;;;12.35;9.85;;;;;;;13.50;100.00;101421.03;4962047;28;20042;-82
2022/07/02 00:29:16;;;;;;;12.02;8.90;;;;;;;13.42;100.00;101416.78;4940219;28;20412;-81
2022/07/02 00:31:43;;;;;;;13.15;9.40;;;;;;;13.44;100.00;101423.78;4957908;28;20041;-82
2022/07/02 00:34:10;;;;;;;9.80;8.32;;;;;;;13.37;100.00;101422.19;4947802;28;20049;-81
2022/07/02 00:36:37;;;;;;;10.07;8.57;;;;;;;13.35;100.00;101421.31;4939824;28;20043;-81
2022/07/02 00:39:04;;;;;;;8.65;7.75;;;;;;;13.30;100.00;101420.56;4938665;28;20114;-81
2022/07/02 00:41:32;;;;;;;10.43;7.28;;;;;;;13.25;100.00;101422.41;4946659;28;20039;-81
2022/07/02 00:43:59;;;;;;;9.90;8.23;;;;;;;13.20;100.00;101416.31;4964646;28;20141;-81
2022/07/02 00:46:27;;;;;;;9.93;7.93;;;;;;;13.16;100.00;101415.47;4944729;28;20142;-81
2022/07/02 00:48:54;;;;;;;10.80;8.50;;;;;;;13.10;100.00;101420.00;4957706;28;20053;-81
2022/07/02 00:51:21;;;;;;;9.55;8.07;;;;;;;13.02;100.00;101416.63;4932911;28;20035;-81
2022/07/02 00:53:48;;;;;;;8.95;7.88;;;;;;;13.01;100.00;101423.72;4937495;28;20058;-81
2022/07/02 00:56:14;;;;;;;11.30;7.75;;;;;;;12.95;100.00;101423.84;4938519;28;20069;-81
2022/07/02 00:58:41;;;;;;;7.95;7.15;;;;;;;12.90;100.00;101423.03;4950300;28;20121;-81
2022/07/02 01:01:08;;;;;;;9.02;7.75;;;;;;;12.85;100.00;101425.75;4963350;28;20141;-81
2022/07/02 01:03:36;;;;;;;9.48;8.13;;;;;;;12.82;100.00;101433.78;4936282;28;21806;-81
2022/07/02 01:06:02;;;;;;;10.00;8.48;;;;;;;12.80;100.00;101432.06;4966342;28;20038;-81
2022/07/02 01:11:18;;;;;;;10.18;8.60;;;;;;;12.71;100.00;101432.22;4970299;28;20045;-81
2022/07/02 01:13:44;;;;;;;8.65;7.25;;;;;;;12.66;100.00;101432.28;4938823;28;20117;-81
2022/07/02 01:16:11;;;;;;;10.77;8.88;;;;;;;12.63;100.00;101424.41;4955990;28;20069;-81
2022/07/02 01:18:38;;;;;;;10.52;8.45;;;;;;;12.60;100.00;101429.72;4937942;28;20043;-81
2022/07/02 01:21:05;;;;;;;11.40;9.23;;;;;;;12.57;100.00;101430.66;4947229;28;20050;-81
2022/07/02 01:23:31;;;;;;;9.15;7.70;;;;;;;12.53;100.00;101431.63;4956775;28;20049;-81
2022/07/02 01:25:58;;;;;;;10.30;8.80;;;;;;;12.54;100.00;101438.69;4961234;28;20066;-81
2022/07/02 01:28:25;;;;;;;10.73;8.55;;;;;;;12.54;100.00;101438.69;4948748;28;20504;-81
2022/07/02 01:30:51;;;;;;;11.15;9.00;;;;;;;12.52;100.00;101436.94;4938821;28;20056;-81
2022/07/02 01:33:18;;;;;;;11.40;9.30;;;;;;;12.48;100.00;101435.25;4951032;28;20039;-81
2022/07/02 01:35:45;;;;;;;13.05;9.75;;;;;;;12.52;100.00;101431.63;4934649;28;20039;-81
2022/07/02 01:38:12;;;;;;;10.45;8.45;;;;;;;12.47;100.00;101431.72;4939049;28;20039;-81
2022/07/02 01:40:39;;;;;;;11.93;9.70;;;;;;;12.48;100.00;101435.25;4972908;28;20035;-81
2022/07/02 01:43:06;;;;;;;9.93;8.57;;;;;;;12.45;100.00;101433.53;4940882;28;20047;-81
2022/07/02 01:45:33;;;;;;;10.00;8.77;;;;;;;12.48;100.00;101437.91;4961751;28;20038;-80
2022/07/02 01:48:00;;;;;;;15.82;11.02;;;;;;;12.50;100.00;101434.31;4920265;28;20035;-81
2022/07/02 01:50:27;;;;;;;11.77;9.15;;;;;;;12.57;100.00;101435.09;4953110;28;20054;-81
2022/07/02 01:52:56;;;;;;;12.93;9.93;;;;;;;12.57;100.00;101435.97;4972831;28;20043;-81
2022/07/02 01:55:24;;;;;;;9.90;8.50;;;;;;;12.59;100.00;101438.59;4930881;28;20043;-81
2022/07/02 01:57:51;;;;;;;12.18;9.65;;;;;;;12.62;100.00;101444.72;4941304;28;20512;-81
2022/07/02 02:00:18;;;;;;;9.80;8.27;;;;;;;12.65;100.00;101439.38;4968296;28;20058;-81
2022/07/02 02:02:46;;;;;;;12.05;9.30;;;;;;;12.66;100.00;101445.53;4959825;28;20066;-82
2022/07/02 02:05:13;;;;;;;12.63;10.32;;;;;;;12.65;100.00;101441.16;4952616;28;20043;-81
2022/07/02 02:07:40;;;;;;;11.80;9.52;;;;;;;12.67;100.00;101436.69;4941092;28;20045;-81
2022/07/02 02:10:07;;;;;;;14.30;10.25;;;;;;;12.70;100.00;101449.03;4941942;28;20122;-81
2022/07/02 02:12:34;;;;;;;11.15;9.45;;;;;;;12.68;100.00;101444.59;4956135;28;20735;-81
2022/07/02 02:15:01;;;;;;;12.98;10.40;;;;;;;12.72;100.00;101450.75;4927585;28;20043;-82
2022/07/02 02:17:27;;;;;;;12.88;9.90;;;;;;;12.73;100.00;101448.97;4968644;28;20407;-81
2022/07/02 02:19:56;;;;;;;15.32;11.88;;;;;;;12.78;100.00;101458.63;4953489;28;20070;-81
2022/07/02 02:22:24;;;;;;;15.52;11.85;;;;;;;12.80;100.00;101464.75;4951267;28;20467;-82
2022/07/02 02:24:51;;;;;;;17.55;12.27;;;;;;;12.86;100.00;101464.66;4967561;28;20053;-81
2022/07/02 02:27:17;;;;;;;14.32;12.25;;;;;;;12.85;100.00;101467.31;4951300;28;20054;-81
2022/07/02 02:29:44;;;;;;;14.55;10.88;;;;;;;12.83;100.00;101466.47;4945632;28;20129;-82
2022/07/02 02:32:11;;;;;;;15.75;12.13;;;;;;;12.87;100.00;101469.06;4953549;28;20073;-81
2022/07/02 02:34:43;;;;;;;12.90;10.23;;;;;;;12.81;100.00;101469.16;4962717;28;20146;-81
2022/07/02 02:37:20;;;;;;;15.07;10.57;;;;;;;12.79;100.00;101478.06;4940888;28;20039;-81
2022/07/02 02:39:46;;;;;;;13.35;11.32;;;;;;;12.80;100.00;101478.03;4954788;28;20122;-83
2022/07/02 02:46:20;;;;;;;13.23;10.43;;;;;;;12.76;100.00;101475.44;4969114;28;20121;-81
2022/07/02 02:48:47;;;;;;;14.27;10.70;;;;;;;12.73;100.00;101479.00;4944804;28;20491;-82
2022/07/02 02:51:15;;;;;;;13.52;11.02;;;;;;;12.65;100.00;101481.78;4923760;28;20047;-82
2022/07/02 02:53:43;;;;;;;15.43;11.55;;;;;;;12.62;100.00;101475.66;4978079;28;20038;-81
2022/07/02 02:56:11;;;;;;;13.38;10.60;;;;;;;12.59;100.00;101481.00;4954989;28;20041;-80
2022/07/02 02:58:38;;;;;;;14.65;12.05;;;;;;;12.55;100.00;101487.25;4935057;29;20042;-82
2022/07/02 03:01:07;;;;;;;15.55;11.35;;;;;;;12.57;100.00;101488.09;4951404;28;20046;-82
2022/07/02 03:03:34;;;;;;;13.70;10.40;;;;;;;12.50;100.00;101486.44;4937109;28;20428;-81
2022/07/02 03:06:01;;;;;;;14.25;11.20;;;;;;;12.49;100.00;101496.19;4925508;29;20131;-81
2022/07/02 03:08:28;;;;;;;14.27;10.90;;;;;;;12.46;100.00;101498.88;4931867;28;20050;-81
2022/07/02 03:10:55;;;;;;;14.80;10.60;;;;;;;12.44;100.00;101499.78;4943719;28;20053;-80
2022/07/02 03:13:21;;;;;;;15.35;11.95;;;;;;;12.42;100.00;101497.16;4953269;28;20049;-83
2022/07/02 03:15:48;;;;;;;14.18;11.23;;;;;;;12.42;100.00;101504.22;4936656;28;20042;-80
2022/07/02 03:18:15;;;;;;;14.70;11.38;;;;;;;12.38;100.00;101506.94;4939031;28;20047;-81
2022/07/02 03:20:42;;;;;;;14.10;11.07;;;;;;;12.37;100.00;101512.28;4936026;28;20039;-82
2022/07/02 03:23:08;;;;;;;13.45;10.35;;;;;;;12.38;100.00;101517.53;4955142;28;20046;-80
2022/07/02 03:25:35;;;;;;;14.68;11.25;;;;;;;12.42;100.00;101517.50;4942600;28;20047;-81
2022/07/02 03:28:02;;;;;;;13.00;10.00;;;;;;;12.41;100.00;101521.91;4936744;28;20051;-82
2022/07/02 03:30:29;;;;;;;14.30;10.07;;;;;;;12.39;100.00;101519.28;4948107;28;20046;-80
2022/07/02 03:32:55;;;;;;;15.05;11.13;;;;;;;12.38;100.00;101522.84;4962697;28;20422;-81
2022/07/02 03:35:22;;;;;;;15.27;11.02;;;;;;;12.36;100.00;101524.66;4934640;28;20051;-84
2022/07/02 03:37:49;;;;;;;12.95;10.48;;;;;;;12.37;100.00;101528.16;4952450;28;20047;-81
2022/07/02 03:40:15;;;;;;;15.68;10.75;;;;;;;12.35;100.00;101535.25;4938149;28;20049;-80
2022/07/02 03:42:42;;;;;;;13.80;10.80;;;;;;;12.35;100.00;101530.81;4955189;28;20121;-82
2022/07/02 03:45:09;;;;;;;13.38;9.48;;;;;;;12.33;100.00;101540.56;4945910;28;20515;-80
2022/07/02 03:47:36;;;;;;;12.57;10.10;;;;;;;12.38;100.00;101538.75;4938607;28;20042;-80
2022/07/02 03:50:06;;;;;;;14.60;10.90;;;;;;;12.43;100.00;101538.66;5008386;23;20039;31
2022/07/02 03:52:33;;;;;;;15.13;11.15;;;;;;;12.48;100.00;101535.97;4915964;29;20044;-78
2022/07/02 03:55:00;;;;;;;15.05;11.77;;;;;;;12.49;100.00;101543.88;4935964;29;20062;-79
2022/07/02 03:57:27;;;;;;;15.65;11.20;;;;;;;12.55;100.00;101551.75;4931268;29;20474;-78
2022/07/02 03:59:53;;;;;;;13.10;10.70;;;;;;;12.54;100.00;101546.47;4905982;29;20047;-78
2022/07/02 04:02:20;;;;;;;14.77;11.43;;;;;;;12.57;100.00;101557.91;4910143;29;20424;-77
2022/07/02 04:04:47;;;;;;;14.88;12.18;;;;;;;12.57;100.00;101551.72;4907712;29;20811;-78
2022/07/02 04:07:13;;;;;;;14.23;11.57;;;;;;;12.59;100.00;101566.69;4901290;29;20048;-77
2022/07/02 04:09:40;;;;;;;16.30;12.02;;;;;;;12.61;100.00;101553.41;4939653;29;20050;-78
2022/07/02 04:12:07;;;;;;;13.52;10.15;;;;;;;12.60;100.00;101557.84;4906655;29;20043;-78
2022/07/02 04:14:34;;;;;;;14.55;11.55;;;;;;;12.62;100.00;101550.78;4941735;29;20036;-79
2022/07/02 04:17:00;;;;;;;12.98;10.68;;;;;;;12.64;100.00;101556.03;4905658;29;20060;-77
2022/07/02 04:19:28;;;;;;;15.93;11.85;;;;;;;12.66;100.00;101552.47;4909023;29;20051;-77
2022/07/02 04:21:55;;;;;;;15.00;12.43;;;;;;;12.70;100.00;101555.97;4909722;29;20055;-77
2022/07/02 04:24:22;;;;;;;18.25;12.73;;;;;;;12.79;100.00;101549.66;4924758;29;20514;-77
2022/07/02 04:26:48;;;;;;;16.63;13.25;;;;;;;12.81;100.00;101550.50;4904724;29;20047;-78
2022/07/02 04:29:15;;;;;;;15.18;12.20;;;;;;;12.86;100.00;101551.28;4894989;29;20047;-79
2022/07/02 04:31:42;;;;;;;16.63;12.70;;;;;;;12.91;100.00;101552.97;4905367;29;20038;-77
2022/07/02 04:34:09;;;;;;;18.75;14.18;;;;;;;12.98;100.00;101560.84;4925014;29;20046;-79
2022/07/02 04:36:36;;;;;;;21.05;15.68;;;;;;;13.06;100.00;101550.97;4911406;29;20048;-79
2022/07/02 04:39:03;;;;;;;18.55;13.57;;;;;;;13.11;100.00;101563.25;4925904;29;20044;-79
2022/07/02 04:41:30;;;;;;;19.23;14.52;;;;;;;13.16;100.00;101553.44;4931441;29;20043;-77
2022/07/02 04:43:57;;;;;;;17.92;13.75;;;;;;;13.29;100.00;101559.47;4906815;29;20509;-79
2022/07/02 04:46:23;;;;;;;21.23;15.95;;;;;;;13.41;100.00;101550.41;4913702;29;20040;-78
2022/07/02 04:48:51;;;;;;;20.17;14.77;;;;;;;13.50;100.00;101555.53;4925209;29;20055;-78
2022/07/02 04:51:18;;;;;;;20.15;15.60;;;;;;;13.50;100.00;101559.06;4902415;29;20036;-77
2022/07/02 04:53:44;;;;;;;20.38;15.18;;;;;;;13.55;100.00;101558.13;4909464;29;20089;-76
2022/07/02 04:56:11;;;;;;;24.35;16.83;;;;;;;13.64;100.00;101553.50;4903456;29;20161;-78
2022/07/02 04:58:38;;;;;;;22.63;14.82;;;;;;;13.70;100.00;101553.38;4931660;29;20264;-77
2022/07/02 05:01:05;;;;;;;18.45;14.02;;;;;;;13.81;100.00;101558.50;4895149;29;20062;-78
2022/07/02 05:03:31;;;;;;;15.95;12.13;;;;;;;13.86;100.00;101553.94;4911035;29;20036;-77
2022/07/02 05:05:58;;;;;;;25.55;18.27;;;;;;;13.91;100.00;101559.19;4919715;29;20115;-79
2022/07/02 05:08:26;;;;;;;20.73;15.85;;;;;;;14.09;100.00;101565.00;4881491;29;20070;-79
2022/07/02 05:10:53;;;;;;;24.40;16.48;;;;;;;14.13;100.00;101564.97;4918716;29;20048;-77
2022/07/02 05:13:21;;;;;;;23.60;16.27;;;;;;;14.22;100.00;101564.75;4909379;29;20048;-79
2022/07/02 05:15:48;;;;;;;20.08;14.88;;;;;;;14.31;100.00;101562.78;4893403;29;20036;-79
2022/07/02 05:18:15;;;;;;;23.42;16.90;;;;;;;14.69;100.00;101560.19;4883151;29;20047;-78
2022/07/02 05:20:42;;;;;;;18.05;14.43;;;;;;;15.21;100.00;101559.81;4895236;29;20043;-79
2022/07/02 05:23:09;;;;;;;14.77;12.02;;;;;;;15.42;100.00;101558.38;4893431;29;20039;-77
2022/07/02 05:25:36;;;;;;;17.45;13.95;;;;;;;15.42;100.00;101558.38;4898571;29;20033;-79
2022/07/02 05:28:03;;;;;;;19.27;13.55;;;;;;;15.31;100.00;101571.13;4927277;29;20040;-79
2022/07/02 05:30:29;;;;;;;20.60;14.73;;;;;;;15.37;100.00;101566.47;4908480;29;20071;-78
2022/07/02 05:32:56;;;;;;;14.57;11.60;;;;;;;15.32;100.00;101564.88;4906383;29;20036;-79
2022/07/02 05:35:23;;;;;;;16.83;13.95;;;;;;;15.33;100.00;101574.59;4917515;29;20043;-80
2022/07/02 05:37:49;;;;;;;17.73;13.73;;;;;;;15.38;100.00;101570.03;4906082;29;20036;-78
2022/07/02 05:40:16;;;;;;;15.70;12.55;;;;;;;15.55;100.00;101577.56;4915945;29;20128;-76
2022/07/02 05:42:43;;;;;;;15.25;12.02;;;;;;;16.63;100.00;101573.63;4894035;29;20039;-79
2022/07/02 05:45:10;;;;;;;12.15;10.85;;;;;;;18.86;100.00;101580.00;4891705;29;20297;-78
2022/07/02 05:47:36;;;;;;;10.32;9.13;;;;;;;21.02;94.73;101577.47;4894103;29;20044;-80
2022/07/02 05:50:05;;;;;;;10.27;9.13;;;;;;;22.70;77.99;101581.16;4921203;29;20043;-78
2022/07/02 05:52:31;;;;;;;12.40;10.15;;;;;;;24.00;68.19;101587.00;4906361;29;20044;-80
2022/07/02 05:54:58;;;;;;;9.25;7.47;;;;;;;25.60;63.45;101584.66;4897341;29;20040;-78
2022/07/02 05:57:25;;;;;;;7.97;7.03;;;;;;;26.25;60.39;101584.59;4900865;29;20048;-77
2022/07/02 05:59:51;;;;;;;9.48;8.57;;;;;;;26.42;58.51;101591.56;4883068;29;20086;-78
2022/07/02 06:02:18;;;;;;;8.00;7.22;;;;;;;27.32;54.23;101587.56;4912418;29;20068;-77
2022/07/02 06:04:45;;;;;;;7.18;6.57;;;;;;;27.42;53.74;101596.75;4879056;29;20044;-78
2022/07/02 06:09:57;;;;;;;8.85;8.00;;;;;;;26.26;57.67;101608.00;4909726;29;20407;-78
2022/07/02 06:12:24;;;;;;;9.27;8.38;;;;;;;25.08;63.08;101606.25;4896564;29;20616;-78
2022/07/02 06:14:51;;;;;;;9.40;8.50;;;;;;;24.73;65.56;101614.81;4909056;29;20036;-78
2022/07/02 06:17:18;;;;;;;8.93;8.05;;;;;;;24.09;67.25;101617.00;4886437;29;20043;-79
2022/07/02 06:19:47;;;;;;;11.10;10.00;;;;;;;23.73;68.48;101616.56;4917617;29;20668;-79
2022/07/02 06:22:14;;;;;;;11.65;10.48;;;;;;;23.07;70.84;101615.00;4908901;29;20511;-79
2022/07/02 06:24:41;;;;;;;11.23;10.13;;;;;;;22.48;76.00;101622.78;4899369;29;20047;-78
2022/07/02 06:27:08;;;;;;;10.80;9.70;;;;;;;22.44;77.24;101626.56;4900457;29;20044;-80
2022/07/02 06:29:35;;;;;;;10.45;9.45;;;;;;;22.16;80.59;101626.34;4884282;29;20127;-80
2022/07/02 06:32:02;;;;;;;9.35;8.45;;;;;;;22.05;80.52;101624.19;4912812;29;20044;-79
2022/07/02 06:34:28;;;;;;;10.38;9.43;;;;;;;21.80;83.10;101629.13;4887956;29;20139;-79
2022/07/02 06:36:55;;;;;;;11.57;10.48;;;;;;;21.89;83.66;101629.50;4890419;29;20557;-78
2022/07/02 06:39:25;;;;;;;11.27;9.80;;;;;;;22.01;80.27;101627.13;4889680;29;20044;-79
2022/07/02 06:44:37;;;;;;;10.00;9.00;;;;;;;22.35;85.66;101634.28;4881985;29;20066;-79
2022/07/02 06:47:04;;;;;;;10.30;9.27;;;;;;;22.16;81.48;101637.97;4901078;29;20115;-80
2022/07/02 06:49:31;;;;;;;9.55;8.43;;;;;;;22.07;85.13;101633.09;4908439;29;20044;-78
2022/07/02 06:51:58;;;;;;;12.68;9.65;;;;;;;21.91;83.54;101643.75;4883562;29;20039;-79
2022/07/02 06:54:24;;;;;;;10.05;8.68;;;;;;;22.20;84.49;101641.41;4906540;29;20047;-78
2022/07/02 06:56:51;;;;;;;9.30;8.40;;;;;;;22.55;84.06;101644.00;4878110;29;20066;-78
2022/07/02 06:59:18;;;;;;;10.15;9.13;;;;;;;22.81;79.32;101639.84;4910893;29;20046;-77
2022/07/02 07:01:44;;;;;;;7.85;7.15;;;;;;;22.72;77.39;101654.72;4895522;29;20058;-78
2022/07/02 07:04:32;;;;;;;10.50;9.18;;;;;;;22.87;77.50;101648.50;4913769;29;20127;-78
2022/07/02 07:07:02;;;;;;;9.25;7.93;;;;;;;23.01;77.03;101647.69;4901416;29;20052;-78
2022/07/02 07:09:30;;;;;;;8.02;7.30;;;;;;;23.02;82.46;101650.31;4893801;29;20083;-79
2022/07/02 07:11:57;;;;;;;12.38;8.38;;;;;;;23.15;74.56;101650.50;4895805;29;20063;-77
2022/07/02 07:14:23;;;;;;;10.35;8.77;;;;;;;23.19;78.79;101643.09;4894531;29;20052;-78
2022/07/02 07:16:50;;;;;;;7.72;6.95;;;;;;;23.41;76.40;101650.81;4910521;29;20118;-78
2022/07/02 07:19:17;;;;;;;7.80;7.00;;;;;;;23.74;74.40;101653.38;4910493;29;20460;-78
2022/07/02 07:21:43;;;;;;;9.38;8.35;;;;;;;23.86;74.28;101653.50;4899581;29;20071;-77
2022/07/02 07:24:10;;;;;;;7.88;6.70;;;;;;;23.83;74.01;101658.22;4893648;29;20054;-77
2022/07/02 07:26:38;;;;;;;9.63;7.75;;;;;;;23.90;71.50;101650.63;4899155;29;20059;-77
2022/07/02 07:29:07;;;;;;;7.40;6.70;;;;;;;23.92;73.35;101652.25;4911341;29;20040;-79
2022/07/02 07:31:34;;;;;;;8.18;7.38;;;;;;;24.03;71.68;101657.88;4892736;29;20047;-78
2022/07/02 07:34:02;;;;;;;9.02;7.80;;;;;;;24.22;70.08;101660.31;4911215;29;20042;-78
2022/07/02 07:36:29;;;;;;;8.73;7.70;;;;;;;24.33;68.08;101665.09;4917271;29;20038;-79
2022/07/02 07:38:56;;;;;;;6.85;6.25;;;;;;;24.24;68.39;101671.91;4899155;29;20067;-78
2022/07/02 07:41:23;;;;;;;13.02;8.02;;;;;;;24.50;68.78;101672.13;4898971;29;20044;-77
2022/07/02 07:43:53;;;;;;;8.48;7.63;;;;;;;23.91;66.19;101668.56;4916227;29;20513;-79
2022/07/02 07:46:20;;;;;;;8.43;7.63;;;;;;;23.95;67.11;101670.94;4904483;29;20042;-78
2022/07/02 07:48:47;;;;;;;8.52;7.32;;;;;;;23.83;69.07;101671.72;4897046;29;20396;-78
2022/07/02 07:51:14;;;;;;;6.72;6.13;;;;;;;23.97;67.12;101674.47;4911660;29;20036;-79
2022/07/02 07:53:43;;;;;;;6.68;5.78;;;;;;;24.32;66.23;101666.91;4894116;29;20404;-79
2022/07/02 07:56:14;;;;;;;5.40;4.90;;;;;;;24.60;60.75;101673.28;4911762;29;20505;-78
2022/07/02 07:58:41;;;;;;;5.53;4.65;;;;;;;24.92;60.83;101679.34;4907113;29;20511;-78
2022/07/02 08:01:07;;;;;;;6.40;4.60;;;;;;;25.04;62.56;101673.16;4928803;29;20044;-78
2022/07/02 08:03:37;;;;;;;5.35;4.20;;;;;;;25.25;61.41;101665.50;4900215;29;20102;-78
2022/07/02 08:06:03;;;;;;;5.70;5.10;;;;;;;25.22;56.86;101680.09;4897746;29;20051;-78
2022/07/02 08:08:30;;;;;;;5.85;4.55;;;;;;;25.38;63.14;101673.66;4915015;29;20610;-79
2022/07/02 08:10:57;;;;;;;5.38;4.88;;;;;;;25.60;55.51;101678.50;4898636;29;20040;-78
2022/07/02 08:13:24;;;;;;;5.03;4.30;;;;;;;25.51;56.25;101686.25;4917087;29;20048;-78
2022/07/02 08:15:50;;;;;;;5.13;4.53;;;;;;;25.39;56.57;101680.78;4900130;29;20043;-78
2022/07/02 08:18:17;;;;;;;6.85;4.55;;;;;;;25.85;55.61;101673.19;4915794;29;20053;-80
2022/07/02 08:20:44;;;;;;;6.03;3.95;;;;;;;26.05;54.82;101677.22;4930242;29;20054;-79
2022/07/02 08:23:13;;;;;;;6.82;4.90;;;;;;;25.81;52.76;101672.53;4914022;29;20489;-78
2022/07/02 08:25:41;;;;;;;4.82;4.15;;;;;;;25.92;54.94;101679.06;4899218;29;20043;-76
2022/07/02 08:28:07;;;;;;;5.10;4.60;;;;;;;26.36;54.02;101684.06;4909037;29;20083;-78
2022/07/02 08:30:34;;;;;;;5.88;4.13;;;;;;;26.08;52.54;101685.16;4910243;29;20413;-78
2022/07/02 08:33:01;;;;;;;4.40;4.00;;;;;;;25.02;51.62;101693.13;4929421;29;20044;-78
2022/07/02 08:35:28;;;;;;;4.20;3.70;;;;;;;24.51;52.26;101699.06;4914222;29;20063;-78
2022/07/02 08:37:54;;;;;;;4.00;3.60;;;;;;;24.13;53.51;101687.88;4900381;29;20719;-78
2022/07/02 08:40:26;;;;;;;4.85;3.67;;;;;;;24.29;55.73;101698.59;4899526;29;20046;-78
2022/07/02 08:42:53;;;;;;;4.78;3.92;;;;;;;24.74;56.52;101691.34;4881091;29;20075;-78
2022/07/02 08:45:24;;;;;;;4.00;2.90;;;;;;;24.60;53.34;101687.66;4910537;29;20398;-80
2022/07/02 08:47:54;;;;;;;4.13;3.05;;;;;;;23.99;51.20;101696.81;4897519;29;20052;-78
2022/07/02 08:50:23;;;;;;;4.40;3.55;;;;;;;24.10;54.59;101694.31;4913536;29;20682;-79
2022/07/02 08:52:53;;;;;;;3.40;3.10;;;;;;;24.48;51.31;101690.28;4897791;29;20046;-77
2022/07/02 08:55:20;;;;;;;3.25;2.78;;;;;;;24.83;50.62;101698.84;4902251;29;20396;-76
2022/07/02 08:57:48;;;;;;;2.90;2.65;;;;;;;25.39;50.57;101691.59;4915071;29;20039;-77
2022/07/02 09:00:17;;;;;;;3.05;2.67;;;;;;;25.85;47.25;101692.13;4916239;29;20040;-79
2022/07/02 09:02:44;;;;;;;3.92;2.40;;;;;;;26.29;47.89;101699.03;4906518;29;20054;-75
2022/07/02 09:05:12;;;;;;;3.53;2.53;;;;;;;25.95;40.28;101689.66;4898702;29;20048;-78
2022/07/02 09:07:39;;;;;;;4.10;2.30;;;;;;;25.64;43.60;101691.69;4918438;29;20045;-78
2022/07/02 09:10:08;;;;;;;4.85;2.38;;;;;;;25.96;44.85;101686.84;4913143;29;20051;-79
2022/07/02 09:12:35;;;;;;;4.80;2.30;;;;;;;25.93;42.44;101687.06;4899149;29;20044;-78
2022/07/02 09:15:02;;;;;;;4.57;2.25;;;;;;;25.85;44.72;101691.28;4892071;29;20050;-78
2022/07/02 09:17:30;;;;;;;4.72;2.80;;;;;;;26.21;46.04;101690.56;4895896;29;20043;-79
2022/07/02 09:19:56;;;;;;;2.67;2.28;;;;;;;25.87;40.19;101686.63;4901661;29;20421;-78
2022/07/02 09:22:31;;;;;;;3.92;2.38;;;;;;;25.32;43.54;101693.00;4885140;29;20043;-77
2022/07/02 09:25:13;;;;;;;4.10;2.25;;;;;;;24.61;45.72;101697.50;4887685;29;20059;-79
2022/07/02 09:27:40;;;;;;;2.40;2.20;;;;;;;24.12;45.84;101697.78;4906899;29;20036;-78
2022/07/02 09:30:08;;;;;;;2.63;2.30;;;;;;;24.52;47.95;101691.81;4909538;29;20067;-77
2022/07/02 09:32:40;;;;;;;2.50;2.30;;;;;;;24.63;44.59;101689.28;4896272;29;20051;-77
2022/07/02 09:35:15;;;;;;;2.50;2.28;;;;;;;25.00;46.61;101690.53;4908251;29;20043;-79
2022/07/02 09:37:41;;;;;;;4.00;2.33;;;;;;;25.47;45.08;101682.00;4912463;29;20500;-77
2022/07/02 09:40:08;;;;;;;3.92;2.95;;;;;;;24.97;44.75;101688.00;4902775;29;20461;-78
2022/07/02 09:42:35;;;;;;;4.63;2.80;;;;;;;25.46;48.07;101679.41;4912307;29;20051;-77
2022/07/02 09:45:04;;;;;;;3.92;2.42;;;;;;;25.56;45.36;101680.56;4908628;29;20437;-78
2022/07/02 09:47:33;;;;;;;3.83;2.45;;;;;;;24.97;41.95;101678.09;4901459;29;20405;-78
2022/07/02 09:50:05;;;;;;;3.05;2.55;;;;;;;25.15;46.13;101665.25;4908843;29;20040;-79
2022/07/02 09:52:32;;;;;;;3.25;2.35;;;;;;;25.65;44.63;101671.81;4897229;29;22000;-78
2022/07/02 09:54:59;;;;;;;3.45;2.35;;;;;;;25.66;42.10;101667.28;4908209;29;20040;-78
2022/07/02 09:57:26;;;;;;;2.85;2.30;;;;;;;25.75;44.32;101663.97;4914790;29;20038;-78
2022/07/02 09:59:53;;;;;;;3.38;2.50;;;;;;;26.12;44.58;101664.13;4911534;29;20070;-78
2022/07/02 10:02:24;;;;;;;2.47;2.28;;;;;;;26.43;41.80;101662.88;4900457;29;20179;-78
2022/07/02 10:04:56;;;;;;;4.20;2.75;;;;;;;26.46;40.37;101668.91;5026792;23;21728;-81
2022/07/02 10:07:24;;;;;;;3.13;2.10;;;;;;;25.93;41.49;101665.41;4958597;28;20052;-80
2022/07/02 10:09:51;;;;;;;3.38;2.65;;;;;;;24.89;42.41;101666.91;4985314;28;20055;-81
2022/07/02 10:12:19;;;;;;;3.75;2.35;;;;;;;24.81;42.10;101676.47;4974564;28;20074;-79
2022/07/02 10:14:49;;;;;;;2.78;2.30;;;;;;;24.50;42.19;101666.72;4938491;28;20050;-79
2022/07/02 10:17:19;;;;;;;;;;;;;;;24.17;45.40;101672.34;4926238;28;20133;-78
2022/07/02 10:19:47;;;;;;;3.13;2.10;;;;;;;24.57;45.43;101668.94;4937906;28;20028;-80
2022/07/02 10:22:14;;;;;;;3.35;2.35;;;;;;;24.87;43.18;101671.50;4938378;28;20156;-80
2022/07/02 10:24:41;;;;;;;4.38;2.25;;;;;;;25.54;42.55;101666.25;4956828;28;20050;-80
2022/07/02 10:27:09;;;;;;;3.80;3.33;;;;;;;25.55;42.26;101668.84;4975615;28;20103;-79
2022/07/02 10:29:38;;;;;;;15.77;14.20;;;;;;;24.94;40.98;101672.00;4942600;28;20496;-80
2022/07/02 10:32:21;;;;;;;5.00;4.57;;;;;;;24.41;44.53;101671.75;4936939;28;20093;-80
2022/07/02 10:34:57;;;;;;;2.53;2.22;;;;;;;24.69;44.12;101670.88;4951222;28;20050;-80
2022/07/02 10:37:24;;;;;;;3.88;2.83;;;;;;;25.06;43.89;101667.69;4953339;28;20113;-79
2022/07/02 10:40:01;;;;;;;6.03;3.30;;;;;;;25.65;39.83;101670.94;4930489;28;20518;-81
2022/07/02 10:42:59;;;;;;;10.25;7.80;;;;;;;25.91;40.94;101667.34;4971471;28;20042;-80
2022/07/02 10:45:26;;;;;;;5.22;4.65;;;;;;;26.07;41.62;101672.59;4945538;28;20058;-79
2022/07/02 10:52:34;;;;;;;4.43;3.13;;;;;;;26.49;37.05;101659.72;4984657;28;20094;-79
2022/07/02 10:55:00;;;;;;;6.75;5.57;;;;;;;27.04;38.44;101662.00;4981919;28;20105;-78
2022/07/02 10:57:27;;;;;;;3.33;2.15;;;;;;;27.06;36.92;101661.91;4933589;28;20134;-78
2022/07/02 10:59:54;;;;;;;6.00;2.30;;;;;;;27.64;37.62;101647.53;4969882;28;20423;-78
2022/07/02 11:02:33;;;;;;;4.03;2.08;;;;;;;27.78;35.80;101646.50;4971415;28;20054;-77
2022/07/02 11:05:10;;;;;;;2.80;2.15;;;;;;;28.11;33.46;101643.00;4984743;28;20046;-79
2022/07/02 11:07:44;;;;;;;3.55;2.30;;;;;;;28.42;36.44;101648.72;4933617;28;20038;-77
2022/07/02 11:10:11;;;;;;;2.33;2.00;;;;;;;28.29;37.00;101646.16;4946972;28;20038;-77
2022/07/02 11:12:54;;;;;;;2.58;2.00;;;;;;;28.28;36.88;101636.22;4944420;28;20503;-78
2022/07/02 11:15:34;;;;;;;3.00;2.33;;;;;;;28.58;37.92;101639.22;4953160;28;20198;-79
2022/07/02 11:18:03;;;;;;;2.97;2.08;;;;;;;28.77;36.05;101648.63;4962974;28;20094;-79
2022/07/02 11:20:34;;;;;;;2.75;2.15;;;;;;;28.93;35.10;101654.56;4936915;28;20070;-78
2022/07/02 11:23:04;;;;;;;3.28;2.15;;;;;;;28.91;35.95;101661.97;4955296;28;20097;-79
2022/07/02 11:25:32;;;;;;;2.20;2.00;;;;;;;28.69;35.49;101657.41;4915662;28;20079;-79
2022/07/02 11:28:03;;;;;;;3.13;1.83;;;;;;;28.73;36.12;101653.44;4947529;28;20591;-79
2022/07/02 11:30:32;;;;;;;3.78;2.10;;;;;;;28.40;34.76;101650.72;4966288;28;20073;-79
2022/07/02 11:33:01;;;;;;;2.47;2.05;;;;;;;28.45;35.56;101643.94;4923627;28;20055;-79
2022/07/02 11:35:28;;;;;;;4.15;2.35;;;;;;;28.44;32.76;101641.34;4974141;28;21585;-80
2022/07/02 11:37:58;;;;;;;2.08;1.75;;;;;;;28.19;35.53;101640.53;4968036;28;20163;-80
2022/07/02 11:40:27;;;;;;;2.55;1.90;;;;;;;28.01;34.61;101633.84;4951188;28;20089;-79
2022/07/02 11:42:54;;;;;;;2.65;2.00;;;;;;;27.83;33.64;101636.16;4951948;28;20508;-80
2022/07/02 11:45:21;;;;;;;2.50;1.90;;;;;;;27.40;33.95;101631.25;4967846;28;20046;-79
2022/07/02 11:47:50;;;;;;;3.25;1.85;;;;;;;27.27;36.12;101635.88;4955871;28;20423;-80